x

Venice, Fl (venf1) Weather Station

3:00pm - Mon 25th May 2015 All times are EDT. -4 hours from GMT.

  • Wind
    10mph, 11mph gusts
  • Sea Temp 85°f
  • Air Temp 85°f
  • Sea Pressure 1019.4mb
  • Venice, Fl
  • Venice, Fl

More Historic Weather Station data

Upgrade to MSW Pro to gain access to the past 30 days of data for over 8000 Wavebouys and Weather Stations around the globe.

Join Pro

Comparision Forecast

View Surf forecast
   
Mon 05/25 3:00pm 10 11 mph 1019.4mb 85f 85f
2:00pm 13 14 mph 1020mb 85f 85f
1:00pm 13 16 mph 1020.5mb 85f 87f
12:00pm 14 17 mph 1020.8mb 85f 86f
11:00am 9 11 mph 1021mb 84f 84f
10:00am 11 15 mph 1021mb 84f 82f
9:00am 13 15 mph 1021.1mb 84f 78f
8:00am 11 14 mph 1020.8mb 84f 75f
7:00am 8 9 mph 1020.5mb 84f 74f
6:00am 7 9 mph 1020.1mb 84f 74f
5:00am 5 6 mph 1020.1mb 84f 74f
4:00am 7 8 mph 1019.9mb 84f 75f
3:00am 7 9 mph 1020.2mb 85f 76f
2:00am 8 9 mph 1020.6mb 85f 78f
1:00am 9 11 mph 1020.9mb 85f 79f
12:00am 6 8 mph 1021.4mb 85f 78f
Sun 05/24 11:00pm 7 9 mph 1020.9mb 85f 77f
10:00pm 20 26 mph 1020mb 85f 80f
9:00pm 8 10 mph 1018.9mb 85f 85f
8:00pm 14 15 mph 1018.4mb 85f 83f
7:00pm 14 16 mph 1018.5mb 85f 83f
6:00pm 15 17 mph 1018.6mb 85f 83f
5:00pm 8
mph
1018.5mb 85f 85f
4:00pm 11 13 mph 1019.4mb 85f 84f
3:00pm 11 13 mph 1019.9mb 85f 84f
2:00pm 13 15 mph 1020.6mb 85f 88f
1:00pm 10 14 mph 1021.1mb 84f 87f
12:00pm 11 16 mph 1021.2mb 84f 85f
11:00am 11 16 mph 1021.5mb 84f 84f
10:00am 10 14 mph 1021.5mb 84f 82f
9:00am 11 14 mph 1021.7mb 84f 79f
8:00am 11 14 mph 1021.4mb 84f 76f
7:00am 7 9 mph 1021.3mb 84f 74f
6:00am 9 13 mph 1020.9mb 84f 74f
5:00am 6 7 mph 1020.8mb 84f 74f
4:00am 7 10 mph 1020.8mb 84f 74f
3:00am 6 8 mph 1020.7mb 84f 75f
2:00am 8 10 mph 1021.1mb 84f 76f
1:00am 9 11 mph 1021.4mb 85f 77f
12:00am 8 10 mph 1021.7mb 85f 78f
Sat 05/23 11:00pm 5 7 mph 1021.7mb 85f 79f
10:00pm 6 8 mph 1020.9mb 85f 79f
9:00pm 3 5 mph 1020.7mb 85f 80f
8:00pm 2 3 mph 1020.7mb 85f 80f
7:00pm 6 7 mph 1020.9mb 85f 82f
6:00pm 7 8 mph 1020.6mb 85f 84f
5:00pm 5
mph
1019.9mb 85f 85f
4:00pm 11
mph
1020.7mb 85f 84f
3:00pm 10 11 mph 1021.1mb 85f 85f
2:00pm 8 9 mph 1021.4mb 85f 84f
1:00pm 9 13 mph 1022.2mb 85f 88f
12:00pm 3 7 mph 1022.6mb 85f 85f
11:00am 8 13 mph 1022.5mb 84f 83f
10:00am 9 13 mph 1022.5mb 84f 82f
9:00am 10 15 mph 1022.2mb 84f 78f
8:00am 11 16 mph 1021.5mb 84f 75f
7:00am 11 14 mph 1020.7mb 84f 73f
6:00am 7 8 mph 1020.3mb 84f 72f
5:00am 9 11 mph 1019.9mb 84f 72f
4:00am 8 10 mph 1019.7mb 84f 72f
3:00am 7 8 mph 1019.4mb 85f 73f
2:00am 7 9 mph 1020.2mb 85f 74f
1:00am 3 5 mph 1020.8mb 85f 75f
12:00am 7 8 mph 1020.8mb 85f 76f
Fri 05/22 11:00pm 3 5 mph 1020.3mb 85f 76f
10:00pm 8 10 mph 1020.9mb 85f 76f
9:00pm 7 13 mph 1020.2mb 86f 79f
8:00pm 13 16 mph 1019.9mb 86f 82f
7:00pm 10 13 mph 1018.3mb 86f 84f
6:00pm 14 16 mph 1017.7mb 86f 84f
5:00pm 15 17 mph 1017.9mb 86f 84f
4:00pm 17 20 mph 1017.8mb 85f 84f
3:00pm 16 18 mph 1018.6mb 85f 83f
2:00pm 14
mph
1018.8mb 85f 83f
1:00pm 15 16 mph 1018.8mb 85f 82f
12:00pm 13 14 mph 1019mb 84f 83f
11:00am 7 9 mph 1018.8mb 84f 83f
10:00am 7 8 mph 1018.5mb 84f 83f
9:00am 8 9 mph 1018.1mb 84f 82f
8:00am 5 6 mph 1017.8mb 84f 81f
7:00am 5 6 mph 1017.2mb 84f 80f
6:00am 10 11 mph 1016.6mb 84f 81f
5:00am 13 15 mph 1016.4mb 84f 80f
4:00am 14 15 mph 1016.3mb 84f 81f
3:00am 14 15 mph 1016.4mb 84f 81f
2:00am 11 14 mph 1016.5mb 85f 81f
1:00am 13 15 mph 1016.6mb 85f 82f
12:00am 13 14 mph 1016.5mb 85f 82f
Thu 05/21 11:00pm 15 16 mph 1016.4mb 85f 82f
10:00pm 13 14 mph 1015.8mb 85f 81f
9:00pm 14 16 mph 1015.1mb 85f 81f